TAF LFRK
METAR LFRK
LFRK 280930Z AUTO 32016KT 9999 SCT032 BKN042 06/01 Q1007 TEMPO 34015G25KT=
LFRK 280900Z AUTO 33013KT 9999 FEW028 BKN043 BKN054 05/01 Q1007 TEMPO 34015G25KT=
LFRK 280830Z AUTO 32015KT 9999 SCT028 SCT034 BKN042 05/01 Q1006 TEMPO 34015G25KT=
LFRK 280800Z AUTO 32017KT 9999 SCT025 BKN031 BKN039 05/01 Q1006 TEMPO 34015G25KT=
LFRK 280730Z AUTO 32015KT 9999 BKN024 BKN032 OVC039 05/01 Q1006 TEMPO 34015G25KT=
WC LFRK
WS LFRK
WV LFRK